Terminal Aerodrome Forecast
Issued by NWS Birmingham, AL

Home | Current Version | Previous Version | Text Only | Print | Product List | Glossary On
Versions: 1 2 3 4 5 6 7 8 9 10 11 12 13 14 15 16 17 18 19 20 21 22 23 24 25 26 27
149
FTUS44 KBMX 182340
TAFBHM
TAF
KBHM 182340Z 1900/1924 08005KT P6SM BKN015 OVC030
     FM190100 13005KT P6SM OVC025
     FM190400 14004KT P6SM BKN050
      TEMPO 1911/1914 4SM BR OVC007
     FM191600 17013KT P6SM BKN050=

USA.gov is the U.S. government's official web portal to all federal, state and local government web resources and services.